createdAt,value
2019-06-15T00:00:33.792Z,17.80
2019-06-15T00:03:01.221Z,17.80
2019-06-15T00:05:28.715Z,17.80
2019-06-15T00:08:04.610Z,17.80
2019-06-15T00:10:31.315Z,17.70
2019-06-15T00:12:58.768Z,17.60
2019-06-15T00:15:26.259Z,17.60
2019-06-15T00:17:54.901Z,17.60
2019-06-15T00:20:22.426Z,17.60
2019-06-15T00:22:49.929Z,17.50
2019-06-15T00:25:17.399Z,17.50
2019-06-15T00:27:44.943Z,17.50
2019-06-15T00:30:13.165Z,17.50
2019-06-15T00:32:40.635Z,17.50
2019-06-15T00:35:09.237Z,17.50
2019-06-15T00:37:36.652Z,17.40
2019-06-15T00:40:07.014Z,17.50
2019-06-15T00:42:34.431Z,17.50
2019-06-15T00:45:01.996Z,17.50
2019-06-15T00:47:29.534Z,17.50
2019-06-15T00:49:57.086Z,17.50
2019-06-15T00:52:24.613Z,17.60
2019-06-15T00:54:52.210Z,17.60
2019-06-15T00:57:19.741Z,17.60
2019-06-15T00:59:47.197Z,17.70
2019-06-15T01:02:14.719Z,17.80
2019-06-15T01:04:42.144Z,17.80
2019-06-15T01:07:09.541Z,17.80
2019-06-15T01:09:36.984Z,17.70
2019-06-15T01:12:04.492Z,17.70
2019-06-15T01:14:31.920Z,17.60
2019-06-15T01:16:59.620Z,17.60
2019-06-15T01:19:27.026Z,17.50
2019-06-15T01:21:54.549Z,17.50
2019-06-15T01:24:22.082Z,17.40
2019-06-15T01:26:49.591Z,17.40
2019-06-15T01:29:17.119Z,17.30
2019-06-15T01:31:44.504Z,17.30
2019-06-15T01:34:12.048Z,17.20
2019-06-15T01:36:43.750Z,17.20
2019-06-15T01:39:11.425Z,17.20
2019-06-15T01:41:38.941Z,17.20
2019-06-15T01:44:06.457Z,17.20
2019-06-15T01:46:33.968Z,17.10
2019-06-15T01:49:01.503Z,17.10
2019-06-15T01:51:29.022Z,17.00
2019-06-15T01:53:56.442Z,17.00
2019-06-15T01:56:23.931Z,17.00
2019-06-15T01:58:51.465Z,17.00
2019-06-15T02:01:18.984Z,16.90
2019-06-15T02:03:46.495Z,16.90
2019-06-15T02:06:13.932Z,16.90
2019-06-15T02:08:41.449Z,16.80
2019-06-15T02:11:08.969Z,16.70
2019-06-15T02:13:36.370Z,16.60
2019-06-15T02:16:04.294Z,16.60
2019-06-15T02:18:31.804Z,16.50
2019-06-15T02:20:59.323Z,16.40
2019-06-15T02:23:26.867Z,16.40
2019-06-15T02:25:54.383Z,16.40
2019-06-15T02:28:21.881Z,16.40
2019-06-15T02:30:49.406Z,16.30
2019-06-15T02:33:16.917Z,16.20
2019-06-15T02:35:44.446Z,16.10
2019-06-15T02:38:11.961Z,16.10
2019-06-15T02:40:42.321Z,16.00
2019-06-15T02:43:09.792Z,15.90
2019-06-15T02:45:37.408Z,15.80
2019-06-15T02:48:05.017Z,15.60
2019-06-15T02:50:32.518Z,15.60
2019-06-15T02:52:59.921Z,15.60
2019-06-15T02:55:27.444Z,15.40
2019-06-15T02:57:57.996Z,15.40
2019-06-15T03:00:42.934Z,15.40
2019-06-15T03:03:10.596Z,15.40
2019-06-15T03:05:38.229Z,15.30
2019-06-15T03:08:05.683Z,15.30
2019-06-15T03:10:33.261Z,15.20
2019-06-15T03:13:02.492Z,15.20
2019-06-15T03:15:29.891Z,15.10
2019-06-15T03:17:57.439Z,14.90
2019-06-15T03:20:24.923Z,14.90
2019-06-15T03:22:52.317Z,14.90
2019-06-15T03:25:20.168Z,14.70
2019-06-15T03:27:47.623Z,14.70
2019-06-15T03:30:15.338Z,14.60
2019-06-15T03:32:42.820Z,14.70
2019-06-15T03:35:10.553Z,14.60
2019-06-15T03:37:37.965Z,14.60
2019-06-15T03:40:05.535Z,14.60
2019-06-15T03:42:33.023Z,14.50
2019-06-15T03:45:00.535Z,14.50
2019-06-15T03:47:27.942Z,14.50
2019-06-15T03:49:55.413Z,14.60
2019-06-15T03:52:22.918Z,14.60
2019-06-15T03:54:50.433Z,14.50
2019-06-15T03:57:17.891Z,14.50
2019-06-15T03:59:45.390Z,14.40
2019-06-15T04:02:12.919Z,14.30
2019-06-15T04:04:40.337Z,14.40
2019-06-15T04:07:07.850Z,14.40
2019-06-15T04:09:35.397Z,14.30
2019-06-15T04:12:05.555Z,14.30
2019-06-15T04:14:33.053Z,14.30
2019-06-15T04:17:00.489Z,14.30
2019-06-15T04:19:28.022Z,14.20
2019-06-15T04:21:55.531Z,14.30
2019-06-15T04:24:23.048Z,14.20
2019-06-15T04:26:50.587Z,14.20
2019-06-15T04:29:18.007Z,14.20
2019-06-15T04:31:45.543Z,14.30
2019-06-15T04:34:13.051Z,14.30
2019-06-15T04:36:40.549Z,14.30
2019-06-15T04:39:07.957Z,14.30
2019-06-15T04:41:35.493Z,14.30
2019-06-15T04:44:02.971Z,14.30
2019-06-15T04:46:32.118Z,14.40
2019-06-15T04:48:59.784Z,14.40
2019-06-15T04:51:27.311Z,14.40
2019-06-15T04:53:54.718Z,14.40
2019-06-15T04:56:22.123Z,14.50
2019-06-15T04:58:49.523Z,14.50
2019-06-15T05:01:17.026Z,14.40
2019-06-15T05:03:44.438Z,14.40
2019-06-15T05:06:11.956Z,14.40
2019-06-15T05:08:39.491Z,14.40
2019-06-15T05:11:06.900Z,14.50
2019-06-15T05:13:34.390Z,14.50
2019-06-15T05:16:01.872Z,14.60
2019-06-15T05:18:29.298Z,14.60
2019-06-15T05:20:56.739Z,14.70
2019-06-15T05:23:24.250Z,14.80
2019-06-15T05:25:51.747Z,14.90
2019-06-15T05:28:19.330Z,14.80
2019-06-15T05:30:46.788Z,14.90
2019-06-15T05:33:14.342Z,15.00
2019-06-15T05:35:41.728Z,15.00
2019-06-15T05:38:09.422Z,15.10
2019-06-15T05:40:37.085Z,15.10
2019-06-15T05:43:04.601Z,15.20
2019-06-15T05:45:32.131Z,15.20
2019-06-15T05:47:59.663Z,15.20
2019-06-15T05:50:27.220Z,15.30
2019-06-15T05:52:54.777Z,15.30
2019-06-15T05:55:22.265Z,15.20
2019-06-15T05:57:49.688Z,15.20
2019-06-15T06:00:18.302Z,15.10
2019-06-15T06:02:45.904Z,15.10
2019-06-15T06:05:13.490Z,15.10
2019-06-15T06:07:41.015Z,15.20
2019-06-15T06:10:10.968Z,15.10
2019-06-15T06:12:38.446Z,15.20
2019-06-15T06:15:06.462Z,15.40
2019-06-15T06:17:33.996Z,15.50
2019-06-15T06:20:01.514Z,15.60
2019-06-15T06:22:29.306Z,15.80
2019-06-15T06:24:56.750Z,15.70
2019-06-15T06:27:36.245Z,15.80
2019-06-15T06:29:57.008Z,15.80
2019-06-15T06:32:24.532Z,15.80
2019-06-15T06:34:52.094Z,15.80
2019-06-15T06:37:19.602Z,15.80
2019-06-15T06:39:47.094Z,15.70
2019-06-15T06:42:14.529Z,15.80
2019-06-15T06:44:42.022Z,16.00
2019-06-15T06:47:09.484Z,16.10
2019-06-15T06:49:37.048Z,16.20
2019-06-15T06:52:04.576Z,16.40
2019-06-15T06:54:32.028Z,16.50
2019-06-15T06:56:59.521Z,16.70
2019-06-15T06:59:26.912Z,16.90
2019-06-15T07:01:54.562Z,17.00
2019-06-15T07:04:22.167Z,17.10
2019-06-15T07:06:49.691Z,17.10
2019-06-15T07:09:17.139Z,17.20
2019-06-15T07:11:46.454Z,17.20
2019-06-15T07:14:13.977Z,17.40
2019-06-15T07:16:41.538Z,17.40
2019-06-15T07:19:09.101Z,17.30
2019-06-15T07:21:36.622Z,17.20
2019-06-15T07:24:09.146Z,17.10
2019-06-15T07:26:36.690Z,17.10
2019-06-15T07:29:06.405Z,17.10
2019-06-15T07:31:33.909Z,17.10
2019-06-15T07:34:01.440Z,17.10
2019-06-15T07:36:32.566Z,17.20
2019-06-15T07:39:00.103Z,17.30
2019-06-15T07:41:27.649Z,17.30
2019-06-15T07:43:55.179Z,17.50
2019-06-15T07:46:22.603Z,17.60
2019-06-15T07:48:50.158Z,17.60
2019-06-15T07:51:17.689Z,17.70
2019-06-15T07:53:46.418Z,17.60
2019-06-15T07:56:13.889Z,17.60
2019-06-15T07:58:41.463Z,17.60
2019-06-15T08:01:10.012Z,17.60
2019-06-15T08:03:42.588Z,17.60
2019-06-15T08:06:08.904Z,17.70
2019-06-15T08:08:39.058Z,17.90
2019-06-15T08:11:08.913Z,17.90
2019-06-15T08:13:39.139Z,18.10
2019-06-15T08:16:06.680Z,18.20
2019-06-15T08:18:34.210Z,18.20
2019-06-15T08:21:07.951Z,18.00
2019-06-15T08:23:35.701Z,17.80
2019-06-15T08:26:09.370Z,17.80
2019-06-15T08:28:40.632Z,17.80
2019-06-15T08:31:12.925Z,17.70
2019-06-15T08:33:40.442Z,17.70
2019-06-15T08:36:10.390Z,17.60
2019-06-15T08:38:38.020Z,17.50
2019-06-15T08:41:05.691Z,17.40
2019-06-15T08:43:35.303Z,17.30
2019-06-15T08:46:06.940Z,17.60
2019-06-15T08:48:34.519Z,17.90
2019-06-15T08:51:02.113Z,18.00
2019-06-15T08:53:29.644Z,18.00
2019-06-15T08:55:57.166Z,18.00
2019-06-15T08:58:24.698Z,17.90
2019-06-15T09:00:52.217Z,17.90
2019-06-15T09:03:19.993Z,17.90
2019-06-15T09:06:39.377Z,17.80
2019-06-15T09:09:07.386Z,17.80
2019-06-15T09:11:34.941Z,17.80
2019-06-15T09:14:03.796Z,17.80
2019-06-15T09:16:31.246Z,17.90
2019-06-15T09:18:58.787Z,17.90
2019-06-15T09:21:26.279Z,18.00
2019-06-15T09:23:53.816Z,18.00
2019-06-15T09:26:21.487Z,18.10
2019-06-15T09:28:49.058Z,17.90
2019-06-15T09:31:16.684Z,17.90
2019-06-15T09:33:44.168Z,17.70
2019-06-15T09:36:11.700Z,17.70
2019-06-15T09:38:39.285Z,17.70
2019-06-15T09:41:06.901Z,17.60
2019-06-15T09:43:34.365Z,17.60
2019-06-15T09:46:02.204Z,17.60
2019-06-15T09:48:29.733Z,17.50
2019-06-15T09:50:57.278Z,17.50
2019-06-15T09:53:24.820Z,17.50
2019-06-15T09:55:52.487Z,17.40
2019-06-15T09:58:19.973Z,17.40
2019-06-15T10:00:47.540Z,17.50
2019-06-15T10:03:15.065Z,17.60
2019-06-15T10:05:42.676Z,17.70
2019-06-15T10:08:10.189Z,17.80
2019-06-15T10:10:37.749Z,17.70
2019-06-15T10:13:05.263Z,17.60
2019-06-15T10:15:32.679Z,17.50
2019-06-15T10:18:00.331Z,17.50
2019-06-15T10:20:27.848Z,17.40
2019-06-15T10:22:55.292Z,17.40
2019-06-15T10:25:22.887Z,17.40
2019-06-15T10:27:53.269Z,17.40
2019-06-15T10:30:20.761Z,17.50
2019-06-15T10:32:48.327Z,17.50
2019-06-15T10:35:16.110Z,17.50
2019-06-15T10:37:43.840Z,17.60
2019-06-15T10:40:11.755Z,17.50
2019-06-15T10:42:39.358Z,17.50
2019-06-15T10:45:12.915Z,17.50
2019-06-15T10:47:48.495Z,17.50
2019-06-15T10:50:21.512Z,17.50
2019-06-15T10:52:54.365Z,17.50
2019-06-15T10:55:26.921Z,17.50
2019-06-15T10:57:57.937Z,17.70
2019-06-15T11:00:28.566Z,17.70
2019-06-15T11:03:05.880Z,17.70
2019-06-15T11:05:38.380Z,17.70
2019-06-15T11:08:33.739Z,17.80
2019-06-15T11:11:11.925Z,17.90
2019-06-15T11:13:47.109Z,17.90
2019-06-15T11:16:18.915Z,17.90
2019-06-15T11:18:50.399Z,18.10
2019-06-15T11:21:23.175Z,18.00
2019-06-15T11:23:52.082Z,17.90
2019-06-15T11:26:21.497Z,17.80
2019-06-15T11:28:49.251Z,17.50
2019-06-15T11:31:16.798Z,17.60
2019-06-15T11:33:44.334Z,17.90
2019-06-15T11:36:11.906Z,18.10
2019-06-15T11:38:39.681Z,18.90
2019-06-15T11:41:07.283Z,19.10
2019-06-15T11:43:35.020Z,19.10
2019-06-15T11:46:02.735Z,18.80
2019-06-15T11:48:35.801Z,18.80
2019-06-15T11:51:05.903Z,19.00
2019-06-15T11:53:33.483Z,19.20
2019-06-15T11:56:01.104Z,19.30
2019-06-15T11:58:31.511Z,19.50
2019-06-15T12:00:59.150Z,19.70
2019-06-15T12:03:26.631Z,20.00
2019-06-15T12:05:56.672Z,19.90
2019-06-15T12:08:26.843Z,20.50
2019-06-15T12:10:54.363Z,20.80
2019-06-15T12:13:21.945Z,20.80
2019-06-15T12:15:49.483Z,20.70
2019-06-15T12:18:17.043Z,20.70
2019-06-15T12:20:44.515Z,20.70
2019-06-15T12:23:12.024Z,21.10
2019-06-15T12:25:39.554Z,21.50
2019-06-15T12:28:07.222Z,21.40
2019-06-15T12:30:46.840Z,21.30
2019-06-15T12:33:07.989Z,20.60
2019-06-15T12:35:35.619Z,20.40
2019-06-15T12:38:03.293Z,20.60
2019-06-15T12:40:30.817Z,21.30
2019-06-15T12:42:58.416Z,21.00
2019-06-15T12:45:25.967Z,21.20
2019-06-15T12:47:53.517Z,21.60
2019-06-15T12:50:21.042Z,22.00
2019-06-15T12:52:48.598Z,22.20
2019-06-15T12:55:16.104Z,22.30
2019-06-15T12:57:43.632Z,22.00
2019-06-15T13:00:13.066Z,22.00
2019-06-15T13:02:40.668Z,22.00
2019-06-15T13:05:08.674Z,21.80
2019-06-15T13:07:36.310Z,22.00
2019-06-15T13:10:04.131Z,21.60
2019-06-15T13:12:31.742Z,21.70
2019-06-15T13:14:59.287Z,21.90
2019-06-15T13:17:26.862Z,22.10
2019-06-15T13:19:54.399Z,22.20
2019-06-15T13:22:21.924Z,22.50
2019-06-15T13:24:49.381Z,22.30
2019-06-15T13:27:16.928Z,22.00
2019-06-15T13:29:44.360Z,21.90
2019-06-15T13:32:11.897Z,21.80
2019-06-15T13:34:39.441Z,21.70
2019-06-15T13:37:09.184Z,21.80
2019-06-15T13:39:36.771Z,22.00
2019-06-15T13:42:04.259Z,22.00
2019-06-15T13:44:31.781Z,22.00
2019-06-15T13:46:59.368Z,21.60
2019-06-15T13:49:26.877Z,21.60
2019-06-15T13:51:54.332Z,21.50
2019-06-15T13:54:21.958Z,21.50
2019-06-15T13:56:49.416Z,21.80
2019-06-15T13:59:16.912Z,22.00
2019-06-15T14:01:44.328Z,22.20
2019-06-15T14:04:11.864Z,21.90
2019-06-15T14:06:39.322Z,21.70
2019-06-15T14:09:09.767Z,21.80
2019-06-15T14:11:37.155Z,21.80
2019-06-15T14:14:06.252Z,21.90
2019-06-15T14:16:35.966Z,21.90
2019-06-15T14:19:03.532Z,21.80
2019-06-15T14:21:31.053Z,21.80
2019-06-15T14:24:01.798Z,21.50
2019-06-15T14:26:42.394Z,21.40
2019-06-15T14:29:22.709Z,21.40
2019-06-15T14:31:55.636Z,21.50
2019-06-15T14:34:25.860Z,21.60
2019-06-15T14:36:53.431Z,21.40
2019-06-15T14:39:20.982Z,21.30
2019-06-15T14:41:50.992Z,21.40
2019-06-15T14:44:17.814Z,21.90
2019-06-15T14:46:45.352Z,22.30
2019-06-15T14:49:12.917Z,22.30
2019-06-15T14:51:40.474Z,22.70
2019-06-15T14:54:08.007Z,22.90
2019-06-15T14:56:35.432Z,23.20
2019-06-15T14:59:02.879Z,23.30
2019-06-15T15:01:30.314Z,23.50
2019-06-15T15:03:57.850Z,23.50
2019-06-15T15:06:26.011Z,23.50
2019-06-15T15:08:56.098Z,23.70
2019-06-15T15:11:23.006Z,23.70
2019-06-15T15:13:50.497Z,23.70
2019-06-15T15:16:18.046Z,23.60
2019-06-15T15:18:46.437Z,23.70
2019-06-15T15:21:16.391Z,23.70
2019-06-15T15:23:43.524Z,23.40
2019-06-15T15:26:11.132Z,23.30
2019-06-15T15:28:38.657Z,23.30
2019-06-15T15:31:06.635Z,23.30
2019-06-15T15:33:36.497Z,23.50
2019-06-15T15:36:06.951Z,23.60
2019-06-15T15:38:36.064Z,23.50
2019-06-15T15:41:03.131Z,23.50
2019-06-15T15:43:30.637Z,23.60
2019-06-15T15:45:58.011Z,23.50
2019-06-15T15:48:25.904Z,23.50
2019-06-15T15:51:00.963Z,23.60
2019-06-15T15:53:28.522Z,23.60
2019-06-15T15:56:00.118Z,23.60
2019-06-15T15:58:27.183Z,23.40
2019-06-15T16:00:57.066Z,23.20
2019-06-15T16:03:26.330Z,23.00
2019-06-15T16:05:58.104Z,22.90
2019-06-15T16:08:28.193Z,22.90
2019-06-15T16:10:56.579Z,22.80
2019-06-15T16:13:26.746Z,22.90
2019-06-15T16:15:53.484Z,23.00
2019-06-15T16:18:27.155Z,23.30
2019-06-15T16:20:54.842Z,23.50
2019-06-15T16:23:22.275Z,23.50
2019-06-15T16:25:49.782Z,23.40
2019-06-15T16:28:17.297Z,23.30
2019-06-15T16:31:10.275Z,23.20
2019-06-15T16:33:33.672Z,23.20
2019-06-15T16:36:03.227Z,23.00
2019-06-15T16:38:41.513Z,22.80
2019-06-15T16:41:12.971Z,22.80
2019-06-15T16:43:40.469Z,22.80
2019-06-15T16:46:12.401Z,22.70
2019-06-15T16:48:39.840Z,22.40
2019-06-15T16:51:09.535Z,22.20
2019-06-15T16:53:37.512Z,21.70
2019-06-15T16:56:07.893Z,21.50
2019-06-15T16:58:46.863Z,21.10
2019-06-15T17:01:16.706Z,20.80
2019-06-15T17:03:43.864Z,20.90
2019-06-15T17:06:11.401Z,21.20
2019-06-15T17:08:38.910Z,21.50
2019-06-15T17:11:06.906Z,21.30
2019-06-15T17:13:36.802Z,21.10
2019-06-15T17:16:06.033Z,20.80
2019-06-15T17:18:33.303Z,20.60
2019-06-15T17:21:00.830Z,20.40
2019-06-15T17:23:28.479Z,20.30
2019-06-15T17:25:56.089Z,20.10
2019-06-15T17:28:26.541Z,20.00
2019-06-15T17:30:56.230Z,20.10
2019-06-15T17:33:34.440Z,20.00
2019-06-15T17:35:59.890Z,20.00
2019-06-15T17:38:23.691Z,20.00
2019-06-15T17:40:51.420Z,19.90
2019-06-15T17:43:18.983Z,19.80
2019-06-15T17:45:46.988Z,19.80
2019-06-15T17:48:17.106Z,20.00
2019-06-15T17:50:44.239Z,20.50
2019-06-15T17:53:13.862Z,20.40
2019-06-15T17:55:41.493Z,20.20
2019-06-15T17:58:09.284Z,20.00
2019-06-15T18:00:46.944Z,20.00
2019-06-15T18:03:16.850Z,20.50
2019-06-15T18:05:43.924Z,21.30
2019-06-15T18:08:11.568Z,22.20
2019-06-15T18:10:39.172Z,22.40
2019-06-15T18:13:07.143Z,22.20
2019-06-15T18:15:36.284Z,22.00
2019-06-15T18:18:04.065Z,21.40
2019-06-15T18:20:31.721Z,22.00
2019-06-15T18:22:59.338Z,22.80
2019-06-15T18:25:27.074Z,23.50
2019-06-15T18:27:57.669Z,23.60
2019-06-15T18:30:26.244Z,23.50
2019-06-15T18:32:56.208Z,22.90
2019-06-15T18:35:26.482Z,22.00
2019-06-15T18:37:55.835Z,21.30
2019-06-15T18:40:26.968Z,20.90
2019-06-15T18:42:55.953Z,20.40
2019-06-15T18:45:23.535Z,20.10
2019-06-15T18:47:53.109Z,19.80
2019-06-15T18:50:32.628Z,19.70
2019-06-15T18:53:00.737Z,19.60
2019-06-15T18:55:28.421Z,19.60
2019-06-15T18:57:56.762Z,19.50
2019-06-15T19:00:26.220Z,19.40
2019-06-15T19:02:55.914Z,19.40
2019-06-15T19:05:25.958Z,19.40
2019-06-15T19:07:52.798Z,19.20
2019-06-15T19:10:31.285Z,19.00
2019-06-15T19:12:59.071Z,18.90
2019-06-15T19:15:26.737Z,18.90
2019-06-15T19:17:56.000Z,18.90
2019-06-15T19:20:26.297Z,18.80
2019-06-15T19:22:53.107Z,18.80
2019-06-15T19:25:20.648Z,18.60
2019-06-15T19:27:48.261Z,18.50
2019-06-15T19:30:15.848Z,18.40
2019-06-15T19:32:43.492Z,18.30
2019-06-15T19:35:11.194Z,18.20
2019-06-15T19:37:38.779Z,18.10
2019-06-15T19:40:07.292Z,18.00
2019-06-15T19:42:36.481Z,17.90
2019-06-15T19:45:07.756Z,17.90
2019-06-15T19:47:34.111Z,17.80
2019-06-15T19:50:01.723Z,17.70
2019-06-15T19:52:29.369Z,17.60
2019-06-15T19:54:56.995Z,17.60
2019-06-15T19:57:27.033Z,17.60
2019-06-15T19:59:56.083Z,17.50
2019-06-15T20:02:23.452Z,17.50
2019-06-15T20:05:00.341Z,17.40
2019-06-15T20:07:20.371Z,17.30
2019-06-15T20:09:47.977Z,17.20
2019-06-15T20:12:21.105Z,17.10
2019-06-15T20:14:46.279Z,17.00
2019-06-15T20:17:14.236Z,16.80
2019-06-15T20:19:41.810Z,16.80
2019-06-15T20:22:09.399Z,16.80
2019-06-15T20:24:39.347Z,16.70
2019-06-15T20:27:10.164Z,16.70
2019-06-15T20:29:39.519Z,16.70
2019-06-15T20:32:07.176Z,16.60
2019-06-15T20:34:36.873Z,16.60
2019-06-15T20:37:04.389Z,16.60
2019-06-15T20:39:32.019Z,16.50
2019-06-15T20:41:59.613Z,16.50
2019-06-15T20:44:27.192Z,16.30
2019-06-15T20:46:56.938Z,16.20
2019-06-15T20:49:24.162Z,16.20
2019-06-15T20:51:51.929Z,16.20
2019-06-15T20:54:19.487Z,16.20
2019-06-15T20:56:47.053Z,16.20
2019-06-15T20:59:16.812Z,16.10
2019-06-15T21:01:44.156Z,16.10
2019-06-15T21:04:11.736Z,16.00
2019-06-15T21:06:40.416Z,16.00
2019-06-15T21:09:08.011Z,16.00
2019-06-15T21:11:36.178Z,15.90
2019-06-15T21:14:04.400Z,15.90
2019-06-15T21:16:31.949Z,15.80
2019-06-15T21:18:59.443Z,15.80
2019-06-15T21:21:27.687Z,15.70
2019-06-15T21:23:56.988Z,15.70
2019-06-15T21:26:27.084Z,15.60
2019-06-15T21:28:56.586Z,15.50
2019-06-15T21:31:26.058Z,15.50
2019-06-15T21:33:55.998Z,15.50
2019-06-15T21:36:23.045Z,15.40
2019-06-15T21:38:50.763Z,15.40
2019-06-15T21:41:18.312Z,15.40
2019-06-15T21:43:47.141Z,15.40
2019-06-15T21:46:16.812Z,15.50
2019-06-15T21:48:46.760Z,15.50
2019-06-15T21:51:16.436Z,15.60
2019-06-15T21:53:43.372Z,15.60
2019-06-15T21:56:11.019Z,15.60
2019-06-15T21:58:39.528Z,15.60
2019-06-15T22:01:17.678Z,15.60
2019-06-15T22:03:46.463Z,15.50
2019-06-15T22:06:16.617Z,15.50
2019-06-15T22:08:43.669Z,15.50
2019-06-15T22:11:11.293Z,15.50
2019-06-15T22:13:39.058Z,15.50
2019-06-15T22:16:07.054Z,15.40
2019-06-15T22:18:36.482Z,15.40
2019-06-15T22:21:06.362Z,15.40
2019-06-15T22:23:33.581Z,15.30
2019-06-15T22:26:06.281Z,15.30
2019-06-15T22:28:36.073Z,15.20
2019-06-15T22:31:03.170Z,15.20
2019-06-15T22:33:30.867Z,15.10
2019-06-15T22:35:58.585Z,15.00
2019-06-15T22:38:27.599Z,15.00
2019-06-15T22:40:56.435Z,15.10
2019-06-15T22:43:27.388Z,15.10
2019-06-15T22:45:56.054Z,15.10
2019-06-15T22:48:24.145Z,15.00
2019-06-15T22:50:56.268Z,14.90
2019-06-15T22:53:27.234Z,14.90
2019-06-15T22:55:57.040Z,14.90
2019-06-15T22:58:27.068Z,14.90
2019-06-15T23:00:56.798Z,14.80
2019-06-15T23:03:26.216Z,14.80
2019-06-15T23:05:53.722Z,14.80
2019-06-15T23:08:24.224Z,14.80
2019-06-15T23:10:54.143Z,14.80
2019-06-15T23:13:26.094Z,14.80
2019-06-15T23:15:56.201Z,14.80
2019-06-15T23:18:22.843Z,14.70
2019-06-15T23:20:50.425Z,14.70
2019-06-15T23:23:17.840Z,14.70
2019-06-15T23:25:47.214Z,14.70
2019-06-15T23:28:16.596Z,14.70
2019-06-15T23:30:46.973Z,14.80
2019-06-15T23:33:13.715Z,14.80
2019-06-15T23:35:46.754Z,14.70
2019-06-15T23:38:15.972Z,14.70
2019-06-15T23:40:43.668Z,14.70
2019-06-15T23:43:11.274Z,14.70
2019-06-15T23:45:38.804Z,14.60
2019-06-15T23:48:09.427Z,14.60
2019-06-15T23:50:37.081Z,14.60
2019-06-15T23:53:04.692Z,14.60
2019-06-15T23:55:32.211Z,14.60
2019-06-15T23:57:59.721Z,14.60
